Terminal Aerodrome Forecast
Issued by NWS Greer, SC

Home | Current Version | Previous Version | Text Only | Print | Product List | Glossary On
Versions: 1 2 3 4 5 6 7 8 9 10 11 12 13 14 15 16 17 18 19 20 21 22 23
000
FTUS42 KGSP 190408 AAA
TAFCLT
TAF AMD
KCLT 190408Z 1904/1924 20017G28KT P6SM BKN040 WS020/21040KT
      TEMPO 1905/1907 VRB20G30KT 4SM -SHRA OVC025
     FM190800 25013G21KT P6SM BKN060
     FM191000 29009KT P6SM SCT120
     FM191400 32012G22KT P6SM FEW250=

USA.gov is the U.S. government's official web portal to all federal, state and local government web resources and services.